Time;durP1;ratioP1;P1;durP2;ratioP2;P2;SDS_P1;SDS_P2;PMS_P1;PMS_P2;Temp;Humidity;BMP_temperature;BMP_pressure;BME280_temperature;BME280_humidity;BME280_pressure;Samples;Min_cycle;Max_cycle;Signal;HPM_P1;HPM_P2
2023/05/18 00:00:35;;;;;;;23.97;6.47;;;17.30;99.90;;;;;;4980689;28;20193;-79
2023/05/18 00:03:02;;;;;;;23.53;7.53;;;17.30;99.90;;;;;;4986043;28;20699;-80
2023/05/18 00:05:32;;;;;;;27.20;6.33;;;17.20;99.90;;;;;;4986374;28;20216;-79
2023/05/18 00:08:00;;;;;;;27.97;6.67;;;17.20;99.90;;;;;;5007340;28;20726;-87
2023/05/18 00:10:33;;;;;;;24.77;6.17;;;17.10;99.90;;;;;;5000943;28;20197;-79
2023/05/18 00:13:00;;;;;;;22.93;6.40;;;17.00;99.90;;;;;;4989387;28;20716;-79
2023/05/18 00:15:29;;;;;;;22.63;6.53;;;17.00;99.90;;;;;;4987682;28;20298;-79
2023/05/18 00:17:55;;;;;;;21.30;6.57;;;17.00;99.90;;;;;;5003232;28;20191;-86
2023/05/18 00:20:27;;;;;;;22.17;6.07;;;16.90;99.90;;;;;;4972370;28;20200;-79
2023/05/18 00:22:57;;;;;;;23.13;5.97;;;16.90;99.90;;;;;;4986429;28;20272;-79
2023/05/18 00:25:23;;;;;;;30.43;6.90;;;16.90;99.90;;;;;;5020365;28;20200;-87
2023/05/18 00:27:50;;;;;;;24.03;6.27;;;17.00;99.90;;;;;;4975244;28;20184;-87
2023/05/18 00:30:19;;;;;;;25.57;6.80;;;17.00;99.90;;;;;;5000878;28;20188;-80
2023/05/18 00:32:47;;;;;;;23.63;6.40;;;16.90;99.90;;;;;;4998687;28;20189;-79
2023/05/18 00:35:19;;;;;;;21.17;5.90;;;16.90;99.90;;;;;;4986575;28;20189;-87
2023/05/18 00:37:48;;;;;;;25.10;6.53;;;16.80;99.90;;;;;;5001073;28;20185;-79
2023/05/18 00:40:16;;;;;;;17.83;5.87;;;16.80;99.90;;;;;;5003463;28;20204;-79
2023/05/18 00:42:43;;;;;;;23.50;5.87;;;16.80;99.90;;;;;;5015181;28;20192;-79
2023/05/18 00:45:11;;;;;;;22.13;5.90;;;16.70;99.90;;;;;;4981051;28;20248;-79
2023/05/18 00:47:39;;;;;;;21.00;5.70;;;16.60;99.90;;;;;;5010777;28;20197;-87
2023/05/18 00:50:06;;;;;;;22.27;6.07;;;16.60;99.90;;;;;;5003960;28;20391;-87
2023/05/18 00:52:34;;;;;;;21.47;5.83;;;16.50;99.90;;;;;;4987694;28;20204;-87
2023/05/18 00:55:06;;;;;;;26.07;7.30;;;16.40;99.90;;;;;;5017613;28;20212;-79
2023/05/18 00:57:35;;;;;;;22.50;6.00;;;16.40;99.90;;;;;;5015344;28;20193;-78
2023/05/18 01:00:05;;;;;;;17.77;5.77;;;16.50;99.90;;;;;;4988186;28;20191;-87
2023/05/18 01:02:31;;;;;;;26.40;6.00;;;16.50;99.90;;;;;;5003144;28;20269;-86
2023/05/18 01:04:59;;;;;;;22.27;6.00;;;16.50;99.90;;;;;;5004499;28;20184;-86
2023/05/18 01:07:25;;;;;;;18.70;5.53;;;16.40;99.90;;;;;;5002976;28;20194;-86
2023/05/18 01:09:55;;;;;;;22.77;6.37;;;16.50;99.90;;;;;;5002689;28;20204;-86
2023/05/18 01:13:01;;;;;;;27.47;5.87;;;16.50;99.90;;;;;;5017992;28;20219;-79
2023/05/18 01:15:46;;;;;;;27.00;6.17;;;16.50;99.90;;;;;;4995535;28;20492;-79
2023/05/18 01:18:33;;;;;;;20.63;5.50;;;16.50;99.90;;;;;;5001545;28;20283;-86
2023/05/18 01:21:18;;;;;;;25.73;7.33;;;16.50;99.90;;;;;;4967402;28;20212;-85
2023/05/18 01:24:27;;;;;;;17.93;6.10;;;16.50;99.90;;;;;;4999712;28;20276;-86
2023/05/18 01:27:02;;;;;;;23.87;5.97;;;16.60;99.90;;;;;;4952863;23;20390;-79
2023/05/18 01:29:30;;;;;;;23.63;6.10;;;16.60;99.90;;;;;;4996401;28;20188;-79
2023/05/18 01:32:00;;;;;;;23.17;6.03;;;16.70;99.90;;;;;;4964442;28;20204;-79
2023/05/18 01:34:26;;;;;;;21.27;6.07;;;16.60;99.90;;;;;;4991789;28;20192;-79
2023/05/18 01:36:54;;;;;;;22.07;6.87;;;16.70;99.90;;;;;;4998466;28;20189;-78
2023/05/18 01:39:23;;;;;;;27.07;6.93;;;16.70;99.90;;;;;;4980532;28;20422;-79
2023/05/18 01:42:05;;;;;;;27.63;6.77;;;16.70;99.90;;;;;;4995093;28;20276;-79
2023/05/18 01:44:57;;;;;;;29.47;6.47;;;16.80;99.90;;;;;;4984147;28;20250;-79
2023/05/18 01:47:32;;;;;;;24.40;6.67;;;16.80;99.90;;;;;;4998934;28;20207;-79
2023/05/18 01:50:21;;;;;;;26.57;6.20;;;16.80;99.90;;;;;;4996187;28;20878;-79
2023/05/18 01:53:06;;;;;;;25.80;6.87;;;16.90;99.90;;;;;;4994792;28;20213;-79
2023/05/18 01:55:40;;;;;;;21.80;7.53;;;16.90;99.90;;;;;;4964681;28;20192;-79
2023/05/18 01:58:12;;;;;;;20.47;6.10;;;16.90;99.90;;;;;;4966689;28;20189;-79
2023/05/18 02:00:40;;;;;;;26.27;6.27;;;16.90;99.90;;;;;;4984589;28;20193;-79
2023/05/18 02:03:08;;;;;;;24.67;6.70;;;16.90;99.90;;;;;;4969289;28;20193;-79
2023/05/18 02:05:34;;;;;;;26.10;6.60;;;16.90;99.90;;;;;;4999988;28;20242;-79
2023/05/18 02:08:04;;;;;;;21.70;5.83;;;16.90;99.90;;;;;;4982494;28;20235;-79
2023/05/18 02:10:30;;;;;;;28.00;6.90;;;16.90;99.90;;;;;;4969231;28;20181;-79
2023/05/18 02:13:00;;;;;;;19.90;5.83;;;16.90;99.90;;;;;;4988876;28;20181;-79
2023/05/18 02:15:30;;;;;;;25.63;6.50;;;17.00;99.90;;;;;;5003761;28;20270;-79
2023/05/18 02:17:58;;;;;;;33.33;6.70;;;17.00;99.90;;;;;;4984207;28;20271;-79
2023/05/18 02:20:32;;;;;;;25.63;6.37;;;17.00;99.90;;;;;;4973955;28;20189;-79
2023/05/18 02:23:00;;;;;;;25.73;6.20;;;17.00;99.90;;;;;;5000403;28;20187;-79
2023/05/18 02:25:30;;;;;;;21.60;6.33;;;17.10;99.90;;;;;;5000700;28;20216;-79
2023/05/18 02:27:59;;;;;;;21.93;6.07;;;17.10;99.90;;;;;;4984896;28;20258;-80
2023/05/18 02:30:32;;;;;;;26.73;6.07;;;17.10;99.90;;;;;;4982864;28;20642;-79
2023/05/18 02:33:03;;;;;;;19.27;5.57;;;17.10;99.90;;;;;;4999595;28;20600;-79
2023/05/18 02:35:31;;;;;;;22.73;6.40;;;17.10;99.90;;;;;;5005195;28;20697;-79
2023/05/18 02:38:01;;;;;;;26.27;6.73;;;17.10;99.90;;;;;;5000494;28;20270;-79
2023/05/18 02:40:30;;;;;;;21.97;5.40;;;17.20;99.90;;;;;;4989061;28;20193;-79
2023/05/18 02:42:57;;;;;;;24.50;6.97;;;17.10;99.90;;;;;;4999224;28;20181;-79
2023/05/18 02:45:24;;;;;;;19.70;5.70;;;17.10;99.90;;;;;;4983871;28;20229;-80
2023/05/18 02:47:55;;;;;;;26.60;6.57;;;17.10;99.90;;;;;;4997697;28;20200;-79
2023/05/18 02:50:22;;;;;;;30.63;7.07;;;17.10;99.90;;;;;;4966657;28;20197;-80
2023/05/18 02:52:50;;;;;;;25.00;6.63;;;17.10;99.90;;;;;;4983961;28;20320;-79
2023/05/18 02:55:16;;;;;;;23.93;6.37;;;17.10;99.90;;;;;;4997564;28;20205;-79
2023/05/18 02:57:45;;;;;;;30.80;7.50;;;17.10;99.90;;;;;;5000882;28;20575;-79
2023/05/18 03:00:16;;;;;;;32.27;7.00;;;17.10;99.90;;;;;;5002147;28;20196;-79
2023/05/18 03:02:47;;;;;;;22.60;5.73;;;17.10;99.90;;;;;;4997131;28;20267;-79
2023/05/18 03:05:17;;;;;;;27.63;7.13;;;17.20;99.90;;;;;;4999925;28;20220;-80
2023/05/18 03:07:49;;;;;;;28.87;6.40;;;17.20;99.90;;;;;;4990469;28;20181;-79
2023/05/18 03:10:24;;;;;;;29.80;7.17;;;17.20;99.90;;;;;;5000064;28;20188;-79
2023/05/18 03:12:51;;;;;;;25.67;6.50;;;17.20;99.90;;;;;;4999561;28;20267;-79
2023/05/18 03:15:18;;;;;;;24.90;6.00;;;17.20;99.90;;;;;;4983566;28;20188;-79
2023/05/18 03:17:48;;;;;;;19.87;5.90;;;17.20;99.90;;;;;;4986230;28;20793;-79
2023/05/18 03:20:16;;;;;;;22.43;6.10;;;17.20;99.90;;;;;;4998806;28;20224;-79
2023/05/18 03:22:43;;;;;;;25.97;6.97;;;17.20;99.90;;;;;;4998582;28;20870;-79
2023/05/18 03:25:10;;;;;;;27.60;6.40;;;17.20;99.90;;;;;;4984972;28;20227;-79
2023/05/18 03:27:37;;;;;;;25.77;6.63;;;17.30;99.90;;;;;;4984044;28;20192;-79
2023/05/18 03:30:04;;;;;;;25.67;6.20;;;17.30;99.90;;;;;;5000058;28;20192;-79
2023/05/18 03:32:35;;;;;;;25.93;6.47;;;17.40;99.90;;;;;;4997584;28;20196;-79
2023/05/18 03:35:05;;;;;;;27.00;6.63;;;17.40;99.90;;;;;;4992654;28;20197;-78
2023/05/18 03:37:33;;;;;;;23.97;6.83;;;17.50;99.90;;;;;;4982989;28;20187;-79
2023/05/18 03:40:17;;;;;;;27.67;6.20;;;17.50;99.90;;;;;;5000379;28;20184;-79
2023/05/18 03:42:43;;;;;;;30.93;6.43;;;17.50;99.90;;;;;;4986006;28;20647;-79
2023/05/18 03:45:13;;;;;;;33.97;7.30;;;17.50;99.90;;;;;;4999364;28;20798;-79
2023/05/18 03:47:42;;;;;;;26.13;7.00;;;17.50;99.90;;;;;;4998867;28;20189;-79
2023/05/18 03:50:11;;;;;;;25.10;6.23;;;17.50;99.90;;;;;;4999562;28;20674;-79
2023/05/18 03:52:43;;;;;;;23.67;5.83;;;17.60;99.90;;;;;;5000188;28;20181;-79
2023/05/18 03:55:11;;;;;;;29.03;6.00;;;17.60;99.90;;;;;;4985940;28;20243;-79
2023/05/18 03:57:41;;;;;;;29.20;6.83;;;17.60;99.90;;;;;;4999141;28;20276;-79
2023/05/18 04:00:11;;;;;;;25.67;6.17;;;17.60;99.90;;;;;;4986446;28;20185;-78
2023/05/18 04:02:41;;;;;;;23.37;5.80;;;17.70;99.90;;;;;;4981933;28;20197;-78
2023/05/18 04:05:09;;;;;;;25.33;6.10;;;17.70;99.90;;;;;;4982691;28;20185;-80
2023/05/18 04:07:42;;;;;;;22.90;5.13;;;17.60;99.90;;;;;;4968929;28;20331;-79
2023/05/18 04:10:13;;;;;;;21.90;5.63;;;17.60;99.90;;;;;;4985515;28;20196;-80
2023/05/18 04:12:43;;;;;;;26.57;6.00;;;17.60;99.90;;;;;;4985220;28;20204;-79
2023/05/18 04:15:13;;;;;;;22.77;4.93;;;17.60;99.90;;;;;;4978920;28;20189;-78
2023/05/18 04:17:44;;;;;;;18.63;5.43;;;17.60;99.90;;;;;;4983791;28;20827;-81
2023/05/18 04:20:13;;;;;;;27.00;5.57;;;17.80;99.90;;;;;;4987292;28;20292;-78
2023/05/18 04:22:49;;;;;;;24.93;5.87;;;17.80;99.90;;;;;;4981594;28;20176;-78
2023/05/18 04:25:19;;;;;;;23.17;5.50;;;17.90;99.90;;;;;;4969169;28;20211;-78
2023/05/18 04:27:46;;;;;;;27.67;5.57;;;18.00;99.90;;;;;;4965974;28;20686;-79
2023/05/18 04:30:17;;;;;;;20.80;5.57;;;18.10;99.90;;;;;;4997116;28;20203;-78
2023/05/18 04:32:44;;;;;;;21.97;5.00;;;18.10;99.90;;;;;;4993917;28;20196;-78
2023/05/18 04:35:13;;;;;;;22.80;4.80;;;18.10;99.90;;;;;;5001082;28;20274;-77
2023/05/18 04:37:45;;;;;;;24.27;4.70;;;18.20;99.90;;;;;;4978820;28;20193;-80
2023/05/18 04:40:15;;;;;;;25.43;4.77;;;18.20;99.90;;;;;;4982996;28;20690;-77
2023/05/18 04:42:49;;;;;;;25.20;5.17;;;18.30;99.90;;;;;;4993676;28;20246;-80
2023/05/18 04:45:21;;;;;;;23.30;5.17;;;18.30;99.90;;;;;;4981593;28;20224;-80
2023/05/18 04:47:52;;;;;;;24.27;5.03;;;18.30;99.90;;;;;;4990507;28;20188;-90
2023/05/18 04:50:22;;;;;;;23.73;4.80;;;18.30;99.90;;;;;;4977501;28;20184;-90
2023/05/18 04:52:52;;;;;;;24.33;5.30;;;18.40;99.90;;;;;;5005681;28;20196;-89
2023/05/18 04:55:24;;;;;;;25.03;5.37;;;18.40;99.90;;;;;;5008249;28;20188;-90
2023/05/18 04:58:01;;;;;;;24.30;5.37;;;18.50;99.90;;;;;;5009493;28;20181;-90
2023/05/18 05:00:29;;;;;;;18.73;4.57;;;18.40;99.90;;;;;;5006154;28;20188;-89
2023/05/18 05:02:58;;;;;;;28.13;5.20;;;18.50;99.90;;;;;;4990063;28;20184;-90
2023/05/18 05:05:36;;;;;;;24.57;5.00;;;18.50;99.90;;;;;;5003418;28;20232;-91
2023/05/18 05:08:04;;;;;;;17.60;4.50;;;18.50;99.90;;;;;;4989654;28;20199;-91
2023/05/18 05:10:31;;;;;;;17.47;4.40;;;18.50;99.90;;;;;;5004076;28;20193;-91
2023/05/18 05:12:57;;;;;;;26.20;5.27;;;18.60;99.90;;;;;;5011328;28;20216;-90
2023/05/18 05:15:31;;;;;;;20.93;5.10;;;18.60;99.90;;;;;;4987675;28;20279;-80
2023/05/18 05:18:00;;;;;;;18.70;4.47;;;18.60;99.90;;;;;;4989728;28;20280;-79
2023/05/18 05:20:27;;;;;;;19.73;4.67;;;18.50;99.90;;;;;;4984680;28;20746;-79
2023/05/18 05:22:53;;;;;;;27.20;5.07;;;18.60;99.90;;;;;;4988446;28;20215;-89
2023/05/18 05:25:20;;;;;;;18.87;4.53;;;18.50;99.90;;;;;;4984326;28;20288;-89
2023/05/18 05:27:46;;;;;;;23.20;4.67;;;18.50;99.90;;;;;;4993338;28;20207;-89
2023/05/18 05:30:19;;;;;;;20.47;4.70;;;18.50;99.90;;;;;;4986187;28;20263;-80
2023/05/18 05:32:45;;;;;;;18.80;4.90;;;18.60;99.90;;;;;;5001913;28;20189;-79
2023/05/18 05:35:27;;;;;;;19.10;4.03;;;18.60;99.90;;;;;;5009106;28;20184;-90
2023/05/18 05:37:53;;;;;;;18.23;4.60;;;18.60;99.90;;;;;;5008812;28;20191;-88
2023/05/18 05:40:20;;;;;;;17.73;4.40;;;18.70;99.90;;;;;;4991700;28;20926;-89
2023/05/18 05:42:46;;;;;;;18.77;4.20;;;18.90;99.90;;;;;;5006769;28;20240;-88
2023/05/18 05:45:14;;;;;;;21.40;5.17;;;19.00;99.90;;;;;;4991887;28;20195;-78
2023/05/18 05:47:40;;;;;;;21.80;4.77;;;19.00;99.90;;;;;;4995500;28;20268;-90
2023/05/18 05:50:07;;;;;;;17.33;4.30;;;18.90;99.90;;;;;;4993096;28;20211;-89
2023/05/18 05:52:34;;;;;;;24.83;5.00;;;18.80;99.90;;;;;;5004363;28;20263;-80
2023/05/18 05:55:00;;;;;;;22.80;5.57;;;18.80;99.90;;;;;;4968504;28;20569;-80
2023/05/18 05:57:28;;;;;;;24.07;5.00;;;18.70;99.90;;;;;;4986292;28;20192;-79
2023/05/18 05:59:56;;;;;;;24.57;5.07;;;18.80;99.90;;;;;;4972798;28;20280;-80
2023/05/18 06:02:25;;;;;;;16.33;4.47;;;18.80;99.90;;;;;;4985942;28;20185;-79
2023/05/18 06:04:57;;;;;;;22.40;4.47;;;18.90;99.90;;;;;;5001738;28;20189;-80
2023/05/18 06:07:27;;;;;;;17.33;4.00;;;18.90;99.90;;;;;;4990535;28;20216;-88
2023/05/18 06:09:53;;;;;;;13.00;3.90;;;19.10;99.90;;;;;;5003251;28;20186;-80
2023/05/18 06:12:21;;;;;;;19.57;4.23;;;19.10;99.90;;;;;;5004973;28;20340;-80
2023/05/18 06:14:53;;;;;;;22.00;4.53;;;19.20;99.90;;;;;;4987193;28;20223;-86
2023/05/18 06:17:19;;;;;;;20.30;4.07;;;19.10;99.90;;;;;;4991509;28;20192;-87
2023/05/18 06:19:49;;;;;;;12.90;4.60;;;19.20;99.90;;;;;;4988664;28;20189;-77
2023/05/18 06:22:19;;;;;;;18.87;4.33;;;19.20;99.90;;;;;;4985761;28;20220;-80
2023/05/18 06:24:46;;;;;;;14.30;3.97;;;19.40;99.90;;;;;;5014750;28;20189;-90
2023/05/18 06:27:12;;;;;;;18.37;3.97;;;19.40;99.90;;;;;;4989360;28;20854;-88
2023/05/18 06:29:39;;;;;;;17.87;4.13;;;19.50;99.90;;;;;;4978742;28;20188;-87
2023/05/18 06:32:13;;;;;;;17.37;4.40;;;19.70;99.90;;;;;;5008209;28;20725;-77
2023/05/18 06:34:41;;;;;;;18.37;4.63;;;19.70;99.90;;;;;;4984868;28;20185;-77
2023/05/18 06:37:10;;;;;;;16.77;4.10;;;19.70;99.90;;;;;;5000578;28;20193;-79
2023/05/18 06:39:36;;;;;;;13.60;3.83;;;19.70;99.90;;;;;;4990202;28;20204;-87
2023/05/18 06:42:03;;;;;;;23.70;4.93;;;19.70;99.90;;;;;;4992509;28;20185;-90
2023/05/18 06:44:29;;;;;;;14.17;3.87;;;19.80;99.90;;;;;;4988315;28;20193;-89
2023/05/18 06:46:57;;;;;;;21.53;4.17;;;19.80;99.90;;;;;;5001441;28;20212;-80
2023/05/18 06:49:24;;;;;;;20.17;4.67;;;20.00;99.90;;;;;;4994247;28;20271;-87
2023/05/18 06:51:53;;;;;;;14.37;3.97;;;20.10;99.90;;;;;;5005052;28;20403;-81
2023/05/18 06:54:21;;;;;;;14.37;3.97;;;20.20;99.90;;;;;;4987482;28;20184;-87
2023/05/18 06:56:51;;;;;;;23.33;4.30;;;20.20;99.90;;;;;;4987133;28;20212;-81
2023/05/18 06:59:17;;;;;;;16.60;4.43;;;20.10;99.90;;;;;;5003056;28;20197;-88
2023/05/18 07:01:44;;;;;;;14.27;3.83;;;20.10;99.90;;;;;;4988874;28;20295;-82
2023/05/18 07:04:18;;;;;;;20.90;4.17;;;20.10;99.90;;;;;;4987682;28;20196;-79
2023/05/18 07:06:50;;;;;;;18.03;4.33;;;20.00;99.90;;;;;;4984117;28;20208;-79
2023/05/18 07:09:16;;;;;;;20.83;4.13;;;20.00;99.90;;;;;;5005119;28;20189;-88
2023/05/18 07:11:44;;;;;;;22.87;4.77;;;19.90;99.90;;;;;;4989851;28;21244;-86
2023/05/18 07:14:13;;;;;;;18.37;4.27;;;19.80;99.90;;;;;;4992914;28;20966;-88
2023/05/18 07:16:39;;;;;;;17.23;3.93;;;19.70;99.90;;;;;;4987770;28;20291;-88
2023/05/18 07:19:05;;;;;;;13.57;3.70;;;19.70;99.90;;;;;;5000444;28;20801;-81
2023/05/18 07:21:33;;;;;;;16.77;5.10;;;19.70;99.90;;;;;;5003799;28;20221;-84
2023/05/18 07:24:05;;;;;;;20.53;5.13;;;19.70;99.90;;;;;;4991031;28;20292;-93
2023/05/18 07:26:32;;;;;;;16.07;3.73;;;19.70;99.90;;;;;;4993669;28;20300;-91
2023/05/18 07:28:59;;;;;;;16.23;3.87;;;19.80;99.90;;;;;;4994644;28;20270;-81
2023/05/18 07:31:28;;;;;;;10.63;3.70;;;19.80;99.90;;;;;;4966221;28;20201;-81
2023/05/18 07:34:01;;;;;;;16.00;4.17;;;19.90;99.90;;;;;;4982866;28;20196;-81
2023/05/18 07:36:31;;;;;;;13.13;3.87;;;20.00;99.90;;;;;;4987124;28;20193;-81
2023/05/18 07:39:00;;;;;;;18.17;4.33;;;20.00;99.90;;;;;;4986727;28;20228;-80
2023/05/18 07:41:27;;;;;;;15.90;4.13;;;19.90;99.90;;;;;;4969696;28;20200;-81
2023/05/18 07:43:54;;;;;;;19.20;4.77;;;19.90;99.90;;;;;;5000052;28;20241;-79
2023/05/18 07:46:20;;;;;;;20.57;4.10;;;19.80;99.90;;;;;;4984537;28;20659;-79
2023/05/18 07:48:47;;;;;;;17.97;4.63;;;19.90;99.90;;;;;;4988774;28;20204;-79
2023/05/18 07:51:15;;;;;;;16.40;3.97;;;20.00;99.90;;;;;;4985460;28;20220;-80
2023/05/18 07:53:44;;;;;;;21.70;4.57;;;19.90;99.90;;;;;;4986647;28;20192;-80
2023/05/18 07:56:12;;;;;;;21.20;4.20;;;19.90;99.90;;;;;;4999430;28;20219;-88
2023/05/18 07:58:44;;;;;;;15.53;4.30;;;19.80;99.90;;;;;;5004142;28;20188;-91
2023/05/18 08:01:10;;;;;;;13.73;4.13;;;19.80;99.90;;;;;;5001276;28;20192;-83
2023/05/18 08:03:38;;;;;;;19.13;4.77;;;19.70;99.90;;;;;;5005582;28;20196;-80
2023/05/18 08:06:05;;;;;;;19.70;4.67;;;19.70;99.90;;;;;;4997445;28;20204;-87
2023/05/18 08:08:36;;;;;;;18.73;4.47;;;19.90;99.90;;;;;;4972729;28;20189;-78
2023/05/18 08:11:05;;;;;;;16.87;4.27;;;20.10;99.90;;;;;;4982739;28;20192;-80
2023/05/18 08:13:32;;;;;;;14.80;3.87;;;20.20;99.90;;;;;;4970455;28;20197;-80
2023/05/18 08:15:59;;;;;;;14.33;3.53;;;20.30;99.90;;;;;;4969723;28;20285;-78
2023/05/18 08:18:26;;;;;;;15.00;3.90;;;20.40;99.90;;;;;;4956390;28;20198;-77
2023/05/18 08:20:54;;;;;;;18.30;4.50;;;20.20;99.90;;;;;;4964352;28;20259;-83
2023/05/18 08:23:25;;;;;;;18.70;4.47;;;20.30;99.90;;;;;;4964893;28;20209;-80
2023/05/18 08:25:52;;;;;;;16.67;3.80;;;20.30;99.90;;;;;;4949116;28;20213;-79
2023/05/18 08:28:18;;;;;;;12.30;3.50;;;20.40;99.90;;;;;;4963073;28;20576;-81
2023/05/18 08:30:45;;;;;;;14.33;3.80;;;20.70;99.90;;;;;;4960046;28;20193;-86
2023/05/18 08:33:13;;;;;;;16.70;4.13;;;20.80;99.90;;;;;;4976645;28;20225;-80
2023/05/18 08:35:40;;;;;;;17.00;4.33;;;20.80;99.90;;;;;;4965766;28;20627;-85
2023/05/18 08:38:06;;;;;;;21.50;4.73;;;21.00;99.90;;;;;;4969726;28;20589;-84
2023/05/18 08:40:44;;;;;;;16.97;4.07;;;21.10;99.90;;;;;;4962005;28;20341;-85
2023/05/18 08:43:35;;;;;;;16.57;4.07;;;20.90;99.90;;;;;;4963049;28;20189;-86
2023/05/18 08:46:13;;;;;;;15.97;4.03;;;20.90;99.90;;;;;;4963518;28;20213;-83
2023/05/18 08:48:48;;;;;;;18.77;4.50;;;21.20;99.90;;;;;;4957838;28;20255;-79
2023/05/18 08:51:20;;;;;;;17.43;4.53;;;21.40;99.90;;;;;;4978785;28;20904;-83
2023/05/18 08:53:53;;;;;;;16.20;3.67;;;21.50;99.90;;;;;;4957870;28;20217;-81
2023/05/18 08:56:25;;;;;;;9.67;3.23;;;21.60;99.90;;;;;;4990121;28;20283;-85
2023/05/18 08:58:56;;;;;;;12.00;3.90;;;21.60;99.90;;;;;;4997398;28;20671;-83
2023/05/18 09:01:27;;;;;;;15.50;3.80;;;21.80;99.90;;;;;;4997217;28;20651;-87
2023/05/18 09:04:13;;;;;;;15.07;3.83;;;22.00;99.90;;;;;;5001560;28;20192;-85
2023/05/18 09:07:01;;;;;;;19.43;4.57;;;22.00;99.90;;;;;;4981180;28;20223;-84
2023/05/18 09:21:37;;;;;;;12.25;3.88;;;22.10;99.90;;;;;;5145109;27;20543;-76
2023/05/18 09:24:27;;;;;;;10.27;3.83;;;22.50;99.90;;;;;;5099035;28;20208;-78
2023/05/18 09:27:14;;;;;;;16.23;4.50;;;22.70;99.90;;;;;;5095993;28;20178;-78
2023/05/18 09:30:01;;;;;;;16.33;4.40;;;22.90;99.90;;;;;;5110365;28;20300;-79
2023/05/18 09:32:48;;;;;;;19.65;3.92;;;22.90;99.90;;;;;;5096408;28;20248;-80
2023/05/18 09:35:36;;;;;;;16.90;4.13;;;22.90;99.90;;;;;;5098008;28;20195;-84
2023/05/18 09:38:23;;;;;;;11.00;3.30;;;22.80;99.90;;;;;;5100793;27;20645;-80
2023/05/18 09:41:15;;;;;;;13.53;3.90;;;22.70;99.90;;;;;;5096412;28;20182;-80
2023/05/18 09:44:07;;;;;;;14.80;3.77;;;22.80;99.90;;;;;;5107958;28;20605;-77
2023/05/18 09:46:55;;;;;;;15.00;3.92;;;22.80;99.90;;;;;;5089417;28;20200;-77
2023/05/18 09:49:22;;;;;;;14.15;3.42;;;22.60;99.90;;;;;;5071335;28;20197;-82
2023/05/18 09:51:48;;;;;;;16.95;5.57;;;22.50;99.90;;;;;;5074501;28;20251;-81
2023/05/18 09:54:14;;;;;;;20.77;5.23;;;22.80;99.90;;;;;;5093025;28;20196;-82
2023/05/18 09:56:45;;;;;;;16.47;4.50;;;22.70;99.90;;;;;;5081977;28;20182;-80
2023/05/18 09:59:15;;;;;;;13.15;4.03;;;22.50;99.90;;;;;;5074675;28;20181;-80
2023/05/18 10:02:04;;;;;;;25.10;4.50;;;22.50;99.90;;;;;;5075479;28;20223;-81
2023/05/18 10:04:41;;;;;;;20.75;4.53;;;22.60;99.90;;;;;;5105024;27;20234;-81
2023/05/18 10:07:16;;;;;;;15.45;4.18;;;22.50;99.90;;;;;;5099470;28;20197;-80
2023/05/18 10:09:45;;;;;;;16.57;4.47;;;22.70;99.90;;;;;;5083022;28;20291;-81
2023/05/18 10:12:21;;;;;;;13.52;3.83;;;22.90;99.90;;;;;;5090313;28;20214;-78
2023/05/18 10:14:49;;;;;;;21.03;4.40;;;22.70;99.90;;;;;;5076580;28;20231;-79
2023/05/18 10:17:16;;;;;;;21.73;4.47;;;22.40;99.90;;;;;;5077720;28;20181;-84
2023/05/18 10:19:45;;;;;;;24.23;5.17;;;22.10;99.90;;;;;;5110924;27;20194;-78
2023/05/18 10:22:17;;;;;;;16.93;4.70;;;21.80;99.90;;;;;;5100245;28;20380;-86
2023/05/18 10:24:50;;;;;;;42.07;7.80;;;21.80;99.90;;;;;;5055669;28;20213;-84
2023/05/18 10:27:25;;;;;;;14.97;4.07;;;22.00;99.90;;;;;;5095355;28;20183;-86
2023/05/18 10:29:56;;;;;;;13.53;4.23;;;22.00;99.90;;;;;;5094618;27;20258;-82
2023/05/18 10:32:27;;;;;;;15.97;4.33;;;22.10;99.90;;;;;;5069703;28;20289;-91
2023/05/18 10:34:56;;;;;;;14.27;4.70;;;22.20;99.90;;;;;;5078649;28;20185;-80
2023/05/18 10:37:25;;;;;;;14.73;3.90;;;22.40;99.90;;;;;;5091267;28;20288;-80
2023/05/18 10:39:55;;;;;;;15.53;4.30;;;22.40;99.90;;;;;;5073443;28;20662;-83
2023/05/18 10:42:24;;;;;;;16.40;3.90;;;22.50;99.90;;;;;;5072989;28;20276;-81
2023/05/18 10:44:55;;;;;;;13.20;4.17;;;22.60;99.90;;;;;;5062033;28;20466;-80
2023/05/18 10:47:25;;;;;;;26.90;4.63;;;22.50;99.90;;;;;;5078579;28;20182;-85
2023/05/18 10:49:52;;;;;;;16.93;5.10;;;22.20;99.90;;;;;;5108792;27;20661;-79
2023/05/18 10:52:20;;;;;;;20.23;4.13;;;22.10;99.90;;;;;;5101139;27;20334;-79
2023/05/18 10:54:47;;;;;;;16.57;4.70;;;22.20;99.90;;;;;;5083315;28;20182;-84
2023/05/18 10:57:20;;;;;;;18.27;5.13;;;22.30;99.90;;;;;;5067079;28;20272;-83
2023/05/18 10:59:47;;;;;;;17.43;4.20;;;22.40;99.90;;;;;;5062271;28;22107;-85
2023/05/18 11:02:17;;;;;;;23.50;5.00;;;22.40;99.90;;;;;;5104800;27;20197;-84
2023/05/18 11:04:46;;;;;;;20.33;4.13;;;22.40;99.90;;;;;;5076859;28;20185;-81
2023/05/18 11:07:16;;;;;;;14.33;4.10;;;22.20;99.90;;;;;;5064741;28;20183;-80
2023/05/18 11:09:44;;;;;;;15.00;4.13;;;22.10;99.90;;;;;;5079655;28;20224;-83
2023/05/18 11:12:19;;;;;;;15.53;4.00;;;22.10;99.90;;;;;;5103749;27;20261;-85
2023/05/18 11:14:56;;;;;;;15.30;3.90;;;22.10;99.90;;;;;;5099896;28;20372;-89
2023/05/18 11:17:28;;;;;;;13.00;4.05;;;22.10;99.90;;;;;;5067718;28;20182;-84
2023/05/18 11:22:57;;;;;;;16.70;4.07;;;22.00;99.90;;;;;;5081781;28;20594;-83
2023/05/18 11:25:24;;;;;;;16.87;4.20;;;22.10;99.90;;;;;;5069249;28;20201;-85
2023/05/18 11:28:00;;;;;;;17.10;3.70;;;22.10;99.90;;;;;;5072647;28;20242;-85
2023/05/18 11:30:39;;;;;;;14.50;3.87;;;22.10;99.90;;;;;;5083678;28;20294;-79
2023/05/18 11:33:12;;;;;;;11.77;3.83;;;21.90;99.90;;;;;;5080714;28;20299;-81
2023/05/18 11:36:03;;;;;;;21.53;4.10;;;22.00;99.90;;;;;;5067904;28;20185;-82
2023/05/18 11:39:09;;;;;;;22.57;4.57;;;22.00;99.90;;;;;;5079324;28;20178;-84
2023/05/18 11:41:43;;;;;;;15.20;4.07;;;22.10;99.90;;;;;;5079645;28;20193;-82
2023/05/18 11:44:16;;;;;;;10.87;3.80;;;22.20;99.90;;;;;;5084424;28;20194;-83
2023/05/18 11:47:02;;;;;;;14.43;4.03;;;22.20;99.90;;;;;;5089511;28;20194;-78
2023/05/18 11:49:43;;;;;;;21.03;4.10;;;22.20;99.90;;;;;;5080471;28;20824;-88
2023/05/18 11:52:23;;;;;;;17.07;4.63;;;22.10;99.90;;;;;;5064926;28;20191;-83
2023/05/18 11:54:57;;;;;;;27.20;4.73;;;22.10;99.90;;;;;;5081480;28;20289;-84
2023/05/18 11:57:40;;;;;;;14.60;4.43;;;22.00;99.90;;;;;;5088283;28;20209;-80
2023/05/18 12:00:12;;;;;;;21.30;4.47;;;22.00;99.90;;;;;;5100002;27;20277;-80
2023/05/18 12:02:43;;;;;;;14.57;4.23;;;22.10;99.90;;;;;;5069176;28;20217;-79
2023/05/18 12:05:11;;;;;;;18.50;4.43;;;22.00;99.90;;;;;;5061313;28;20194;-81
2023/05/18 12:07:39;;;;;;;12.57;3.33;;;22.10;99.90;;;;;;5063169;28;20248;-84
2023/05/18 12:10:15;;;;;;;17.90;3.40;;;22.20;99.90;;;;;;5078482;28;20296;-79
2023/05/18 12:13:01;;;;;;;10.93;3.10;;;22.10;99.90;;;;;;5076907;28;20285;-85
2023/05/18 12:15:29;;;;;;;14.17;3.50;;;22.00;99.90;;;;;;5079120;28;20186;-81
2023/05/18 12:17:58;;;;;;;15.60;4.00;;;22.00;99.90;;;;;;5077818;28;20297;-89
2023/05/18 12:20:25;;;;;;;20.97;4.57;;;22.10;99.90;;;;;;5060191;28;20248;-82
2023/05/18 12:22:57;;;;;;;13.90;3.90;;;22.20;99.90;;;;;;5082326;28;20193;-85
2023/05/18 12:25:26;;;;;;;18.30;4.13;;;22.20;99.90;;;;;;5092703;27;20232;-82
2023/05/18 12:27:55;;;;;;;13.17;3.97;;;22.20;99.90;;;;;;5060634;28;20210;-81
2023/05/18 12:30:24;;;;;;;21.67;4.13;;;22.20;99.90;;;;;;5076834;28;20687;-84
2023/05/18 12:32:56;;;;;;;15.77;4.40;;;22.10;99.90;;;;;;5071310;28;20887;-81
2023/05/18 12:35:25;;;;;;;19.27;4.37;;;22.10;99.90;;;;;;5058643;28;20186;-82
2023/05/18 12:37:58;;;;;;;18.73;4.03;;;22.10;99.90;;;;;;5076549;28;20213;-79
2023/05/18 12:40:26;;;;;;;14.40;3.93;;;22.10;99.90;;;;;;5091991;28;20199;-84
2023/05/18 12:43:01;;;;;;;16.00;4.23;;;22.10;99.90;;;;;;5089561;28;20188;-79
2023/05/18 12:45:33;;;;;;;21.80;4.77;;;22.10;99.90;;;;;;5074642;28;20194;-77
2023/05/18 12:48:09;;;;;;;11.60;3.33;;;22.10;99.90;;;;;;5098912;27;20193;-78
2023/05/18 12:50:44;;;;;;;12.87;4.30;;;22.00;99.90;;;;;;5065107;28;20244;-84
2023/05/18 12:53:11;;;;;;;15.57;4.07;;;22.00;99.90;;;;;;5062864;28;20242;-85
2023/05/18 12:55:40;;;;;;;16.33;3.85;;;21.90;99.90;;;;;;5078045;28;20224;-86
2023/05/18 12:58:18;;;;;;;19.27;4.43;;;22.00;99.90;;;;;;5079822;28;20196;-82
2023/05/18 13:00:55;;;;;;;15.93;4.67;;;22.00;99.90;;;;;;5079097;28;20251;-79
2023/05/18 13:03:23;;;;;;;18.40;4.57;;;22.00;99.90;;;;;;5080178;28;20183;-81
2023/05/18 13:06:09;;;;;;;20.50;4.93;;;22.10;99.90;;;;;;5076329;28;20194;-80
2023/05/18 13:08:36;;;;;;;23.50;5.57;;;22.10;99.90;;;;;;5063071;28;20182;-78
2023/05/18 13:11:09;;;;;;;14.60;4.50;;;22.00;99.90;;;;;;5061908;28;20210;-80